sensor_id;sensor_type;location;lat;lon;timestamp;P1;durP1;ratioP1;P2;durP2;ratioP2
70067;SDS011;57425;51.616;6.680;2023-07-13T00:01:03;3.85;;;0.80;;
70067;SDS011;57425;51.616;6.680;2023-07-13T00:03:29;1.98;;;0.80;;
70067;SDS011;57425;51.616;6.680;2023-07-13T00:06:00;5.15;;;0.90;;
70067;SDS011;57425;51.616;6.680;2023-07-13T00:08:29;2.92;;;1.08;;
70067;SDS011;57425;51.616;6.680;2023-07-13T00:10:57;4.32;;;0.77;;
70067;SDS011;57425;51.616;6.680;2023-07-13T00:13:23;5.32;;;0.80;;
70067;SDS011;57425;51.616;6.680;2023-07-13T00:15:49;2.22;;;1.10;;
70067;SDS011;57425;51.616;6.680;2023-07-13T00:18:14;2.67;;;0.85;;
70067;SDS011;57425;51.616;6.680;2023-07-13T00:20:40;3.72;;;0.80;;
70067;SDS011;57425;51.616;6.680;2023-07-13T00:23:06;2.90;;;1.20;;
70067;SDS011;57425;51.616;6.680;2023-07-13T00:25:32;4.32;;;0.77;;
70067;SDS011;57425;51.616;6.680;2023-07-13T00:27:58;5.45;;;0.75;;
70067;SDS011;57425;51.616;6.680;2023-07-13T00:30:23;1.70;;;0.80;;
70067;SDS011;57425;51.616;6.680;2023-07-13T00:32:49;1.35;;;0.65;;
70067;SDS011;57425;51.616;6.680;2023-07-13T00:35:15;6.30;;;0.85;;
70067;SDS011;57425;51.616;6.680;2023-07-13T00:37:41;3.15;;;0.68;;
70067;SDS011;57425;51.616;6.680;2023-07-13T00:40:07;1.75;;;0.68;;
70067;SDS011;57425;51.616;6.680;2023-07-13T00:42:35;2.92;;;0.70;;
70067;SDS011;57425;51.616;6.680;2023-07-13T00:47:36;7.30;;;0.90;;
70067;SDS011;57425;51.616;6.680;2023-07-13T00:50:02;1.13;;;0.55;;
70067;SDS011;57425;51.616;6.680;2023-07-13T00:52:28;3.40;;;1.40;;
70067;SDS011;57425;51.616;6.680;2023-07-13T00:54:55;4.88;;;0.75;;
70067;SDS011;57425;51.616;6.680;2023-07-13T00:57:21;3.70;;;0.68;;
70067;SDS011;57425;51.616;6.680;2023-07-13T00:59:49;1.25;;;0.80;;
70067;SDS011;57425;51.616;6.680;2023-07-13T01:02:19;1.27;;;0.57;;
70067;SDS011;57425;51.616;6.680;2023-07-13T01:04:46;0.98;;;0.50;;
70067;SDS011;57425;51.616;6.680;2023-07-13T01:07:13;11.50;;;0.98;;
70067;SDS011;57425;51.616;6.680;2023-07-13T01:09:38;1.73;;;0.60;;
70067;SDS011;57425;51.616;6.680;2023-07-13T01:12:04;4.28;;;0.85;;
70067;SDS011;57425;51.616;6.680;2023-07-13T01:14:30;2.10;;;1.00;;
70067;SDS011;57425;51.616;6.680;2023-07-13T01:16:56;4.30;;;0.88;;
70067;SDS011;57425;51.616;6.680;2023-07-13T01:19:38;5.32;;;0.77;;
70067;SDS011;57425;51.616;6.680;2023-07-13T01:22:10;0.82;;;0.50;;
70067;SDS011;57425;51.616;6.680;2023-07-13T01:24:38;6.05;;;0.55;;
70067;SDS011;57425;51.616;6.680;2023-07-13T01:27:06;3.38;;;0.98;;
70067;SDS011;57425;51.616;6.680;2023-07-13T01:29:34;2.80;;;0.88;;
70067;SDS011;57425;51.616;6.680;2023-07-13T01:32:08;1.80;;;0.50;;
70067;SDS011;57425;51.616;6.680;2023-07-13T01:34:35;4.97;;;0.68;;
70067;SDS011;57425;51.616;6.680;2023-07-13T01:37:02;1.50;;;0.60;;
70067;SDS011;57425;51.616;6.680;2023-07-13T01:39:29;1.75;;;0.95;;
70067;SDS011;57425;51.616;6.680;2023-07-13T01:41:55;1.20;;;0.80;;
70067;SDS011;57425;51.616;6.680;2023-07-13T01:44:21;1.52;;;0.75;;
70067;SDS011;57425;51.616;6.680;2023-07-13T01:46:46;0.73;;;0.60;;
70067;SDS011;57425;51.616;6.680;2023-07-13T01:49:12;5.53;;;0.75;;
70067;SDS011;57425;51.616;6.680;2023-07-13T01:51:37;5.10;;;0.50;;
70067;SDS011;57425;51.616;6.680;2023-07-13T01:54:03;7.70;;;1.17;;
70067;SDS011;57425;51.616;6.680;2023-07-13T01:56:29;7.57;;;0.93;;
70067;SDS011;57425;51.616;6.680;2023-07-13T01:58:54;4.70;;;0.85;;
70067;SDS011;57425;51.616;6.680;2023-07-13T02:01:20;2.00;;;1.35;;
70067;SDS011;57425;51.616;6.680;2023-07-13T02:03:46;0.85;;;0.50;;
70067;SDS011;57425;51.616;6.680;2023-07-13T02:06:12;2.78;;;0.65;;
70067;SDS011;57425;51.616;6.680;2023-07-13T02:08:37;3.92;;;0.80;;
70067;SDS011;57425;51.616;6.680;2023-07-13T02:11:05;4.40;;;0.77;;
70067;SDS011;57425;51.616;6.680;2023-07-13T02:13:31;5.78;;;1.50;;
70067;SDS011;57425;51.616;6.680;2023-07-13T02:15:56;7.75;;;0.80;;
70067;SDS011;57425;51.616;6.680;2023-07-13T02:18:22;8.20;;;0.50;;
70067;SDS011;57425;51.616;6.680;2023-07-13T02:20:47;2.28;;;0.47;;
70067;SDS011;57425;51.616;6.680;2023-07-13T02:23:13;3.45;;;0.60;;
70067;SDS011;57425;51.616;6.680;2023-07-13T02:25:39;2.03;;;0.70;;
70067;SDS011;57425;51.616;6.680;2023-07-13T02:28:04;1.33;;;0.52;;
70067;SDS011;57425;51.616;6.680;2023-07-13T02:30:30;2.88;;;0.80;;
70067;SDS011;57425;51.616;6.680;2023-07-13T02:32:56;3.33;;;0.75;;
70067;SDS011;57425;51.616;6.680;2023-07-13T02:35:22;0.80;;;0.60;;
70067;SDS011;57425;51.616;6.680;2023-07-13T02:37:48;10.70;;;1.63;;
70067;SDS011;57425;51.616;6.680;2023-07-13T02:40:14;1.02;;;0.60;;
70067;SDS011;57425;51.616;6.680;2023-07-13T02:42:39;1.40;;;0.70;;
70067;SDS011;57425;51.616;6.680;2023-07-13T02:45:06;4.35;;;1.27;;
70067;SDS011;57425;51.616;6.680;2023-07-13T02:47:33;5.80;;;0.80;;
70067;SDS011;57425;51.616;6.680;2023-07-13T02:49:59;7.90;;;0.98;;
70067;SDS011;57425;51.616;6.680;2023-07-13T02:52:25;1.67;;;0.70;;
70067;SDS011;57425;51.616;6.680;2023-07-13T02:54:50;1.42;;;0.60;;
70067;SDS011;57425;51.616;6.680;2023-07-13T02:57:16;2.80;;;0.90;;
70067;SDS011;57425;51.616;6.680;2023-07-13T02:59:42;2.95;;;0.73;;
70067;SDS011;57425;51.616;6.680;2023-07-13T03:02:07;1.30;;;0.60;;
70067;SDS011;57425;51.616;6.680;2023-07-13T03:04:35;4.13;;;1.30;;
70067;SDS011;57425;51.616;6.680;2023-07-13T03:07:01;2.42;;;0.70;;
70067;SDS011;57425;51.616;6.680;2023-07-13T03:09:28;0.70;;;0.70;;
70067;SDS011;57425;51.616;6.680;2023-07-13T03:11:54;1.02;;;0.55;;
70067;SDS011;57425;51.616;6.680;2023-07-13T03:14:21;4.40;;;0.73;;
70067;SDS011;57425;51.616;6.680;2023-07-13T03:16:47;4.05;;;0.73;;
70067;SDS011;57425;51.616;6.680;2023-07-13T03:19:13;2.40;;;0.55;;
70067;SDS011;57425;51.616;6.680;2023-07-13T03:21:38;1.40;;;0.60;;
70067;SDS011;57425;51.616;6.680;2023-07-13T03:24:04;3.78;;;0.98;;
70067;SDS011;57425;51.616;6.680;2023-07-13T03:26:31;2.42;;;0.93;;
70067;SDS011;57425;51.616;6.680;2023-07-13T03:28:57;1.38;;;0.55;;
70067;SDS011;57425;51.616;6.680;2023-07-13T03:31:24;5.97;;;1.00;;
70067;SDS011;57425;51.616;6.680;2023-07-13T03:33:52;4.47;;;0.80;;
70067;SDS011;57425;51.616;6.680;2023-07-13T03:36:18;2.58;;;0.90;;
70067;SDS011;57425;51.616;6.680;2023-07-13T03:38:47;2.05;;;0.60;;
70067;SDS011;57425;51.616;6.680;2023-07-13T03:41:15;7.32;;;0.80;;
70067;SDS011;57425;51.616;6.680;2023-07-13T03:43:41;1.10;;;0.60;;
70067;SDS011;57425;51.616;6.680;2023-07-13T03:46:07;1.73;;;0.70;;
70067;SDS011;57425;51.616;6.680;2023-07-13T03:48:34;4.25;;;0.60;;
70067;SDS011;57425;51.616;6.680;2023-07-13T03:50:59;3.97;;;0.95;;
70067;SDS011;57425;51.616;6.680;2023-07-13T03:53:25;3.45;;;1.00;;
70067;SDS011;57425;51.616;6.680;2023-07-13T03:55:51;3.67;;;0.80;;
70067;SDS011;57425;51.616;6.680;2023-07-13T03:58:50;2.45;;;0.90;;
70067;SDS011;57425;51.616;6.680;2023-07-13T04:01:10;1.48;;;0.68;;
70067;SDS011;57425;51.616;6.680;2023-07-13T04:03:37;4.63;;;0.93;;
70067;SDS011;57425;51.616;6.680;2023-07-13T04:06:04;3.60;;;0.60;;
70067;SDS011;57425;51.616;6.680;2023-07-13T04:08:32;3.40;;;0.60;;
70067;SDS011;57425;51.616;6.680;2023-07-13T04:10:58;3.95;;;1.10;;
70067;SDS011;57425;51.616;6.680;2023-07-13T04:13:25;4.65;;;0.93;;
70067;SDS011;57425;51.616;6.680;2023-07-13T04:15:51;2.05;;;0.73;;
70067;SDS011;57425;51.616;6.680;2023-07-13T04:18:17;2.17;;;0.70;;
70067;SDS011;57425;51.616;6.680;2023-07-13T04:20:43;1.45;;;0.55;;
70067;SDS011;57425;51.616;6.680;2023-07-13T04:23:09;4.45;;;1.10;;
70067;SDS011;57425;51.616;6.680;2023-07-13T04:25:35;3.45;;;0.80;;
70067;SDS011;57425;51.616;6.680;2023-07-13T04:28:01;4.57;;;0.85;;
70067;SDS011;57425;51.616;6.680;2023-07-13T04:30:28;2.00;;;1.10;;
70067;SDS011;57425;51.616;6.680;2023-07-13T04:32:53;1.70;;;0.63;;
70067;SDS011;57425;51.616;6.680;2023-07-13T04:35:19;2.25;;;0.80;;
70067;SDS011;57425;51.616;6.680;2023-07-13T04:37:46;2.72;;;0.98;;
70067;SDS011;57425;51.616;6.680;2023-07-13T04:40:13;3.63;;;1.17;;
70067;SDS011;57425;51.616;6.680;2023-07-13T04:42:39;8.40;;;0.75;;
70067;SDS011;57425;51.616;6.680;2023-07-13T04:45:05;2.15;;;0.75;;
70067;SDS011;57425;51.616;6.680;2023-07-13T04:47:32;8.02;;;1.13;;
70067;SDS011;57425;51.616;6.680;2023-07-13T04:49:58;1.10;;;0.70;;
70067;SDS011;57425;51.616;6.680;2023-07-13T04:52:23;2.75;;;0.70;;
70067;SDS011;57425;51.616;6.680;2023-07-13T04:54:49;4.93;;;1.10;;
70067;SDS011;57425;51.616;6.680;2023-07-13T04:57:15;1.75;;;0.75;;
70067;SDS011;57425;51.616;6.680;2023-07-13T04:59:41;3.42;;;0.77;;
70067;SDS011;57425;51.616;6.680;2023-07-13T05:02:06;4.82;;;1.08;;
70067;SDS011;57425;51.616;6.680;2023-07-13T05:04:32;2.17;;;1.13;;
70067;SDS011;57425;51.616;6.680;2023-07-13T05:06:58;7.45;;;0.93;;
70067;SDS011;57425;51.616;6.680;2023-07-13T05:09:24;4.05;;;0.90;;
70067;SDS011;57425;51.616;6.680;2023-07-13T05:11:50;1.05;;;0.75;;
70067;SDS011;57425;51.616;6.680;2023-07-13T05:14:17;9.00;;;0.98;;
70067;SDS011;57425;51.616;6.680;2023-07-13T05:16:43;2.63;;;0.90;;
70067;SDS011;57425;51.616;6.680;2023-07-13T05:19:08;3.60;;;1.35;;
70067;SDS011;57425;51.616;6.680;2023-07-13T05:21:34;3.33;;;1.05;;
70067;SDS011;57425;51.616;6.680;2023-07-13T05:24:00;4.18;;;0.90;;
70067;SDS011;57425;51.616;6.680;2023-07-13T05:26:25;4.95;;;1.13;;
70067;SDS011;57425;51.616;6.680;2023-07-13T05:28:51;3.10;;;1.55;;
70067;SDS011;57425;51.616;6.680;2023-07-13T05:31:17;8.40;;;1.42;;
70067;SDS011;57425;51.616;6.680;2023-07-13T05:33:44;3.13;;;0.90;;
70067;SDS011;57425;51.616;6.680;2023-07-13T05:36:09;5.68;;;1.33;;
70067;SDS011;57425;51.616;6.680;2023-07-13T05:38:35;6.05;;;0.90;;
70067;SDS011;57425;51.616;6.680;2023-07-13T05:41:01;1.25;;;0.80;;
70067;SDS011;57425;51.616;6.680;2023-07-13T05:43:26;3.28;;;1.13;;
70067;SDS011;57425;51.616;6.680;2023-07-13T05:45:52;3.92;;;1.13;;
70067;SDS011;57425;51.616;6.680;2023-07-13T05:48:19;4.68;;;1.05;;
70067;SDS011;57425;51.616;6.680;2023-07-13T05:50:45;4.15;;;1.08;;
70067;SDS011;57425;51.616;6.680;2023-07-13T05:53:11;7.85;;;1.83;;
70067;SDS011;57425;51.616;6.680;2023-07-13T05:55:41;2.60;;;1.38;;
70067;SDS011;57425;51.616;6.680;2023-07-13T05:58:08;3.45;;;1.30;;
70067;SDS011;57425;51.616;6.680;2023-07-13T06:00:35;8.35;;;1.40;;
70067;SDS011;57425;51.616;6.680;2023-07-13T06:03:01;8.32;;;1.67;;
70067;SDS011;57425;51.616;6.680;2023-07-13T06:05:27;7.32;;;1.48;;
70067;SDS011;57425;51.616;6.680;2023-07-13T06:07:53;11.13;;;1.75;;
70067;SDS011;57425;51.616;6.680;2023-07-13T06:10:20;3.40;;;1.58;;
70067;SDS011;57425;51.616;6.680;2023-07-13T06:12:45;6.78;;;1.60;;
70067;SDS011;57425;51.616;6.680;2023-07-13T06:15:11;3.33;;;1.58;;
70067;SDS011;57425;51.616;6.680;2023-07-13T06:17:37;5.15;;;1.60;;
70067;SDS011;57425;51.616;6.680;2023-07-13T06:20:03;4.93;;;1.27;;
70067;SDS011;57425;51.616;6.680;2023-07-13T06:22:29;3.40;;;1.65;;
70067;SDS011;57425;51.616;6.680;2023-07-13T06:24:54;5.00;;;1.55;;
70067;SDS011;57425;51.616;6.680;2023-07-13T06:27:20;6.82;;;1.02;;
70067;SDS011;57425;51.616;6.680;2023-07-13T06:29:46;14.07;;;2.25;;
70067;SDS011;57425;51.616;6.680;2023-07-13T06:32:11;8.68;;;2.00;;
70067;SDS011;57425;51.616;6.680;2023-07-13T06:34:37;12.40;;;2.72;;
70067;SDS011;57425;51.616;6.680;2023-07-13T06:37:03;9.05;;;2.05;;
70067;SDS011;57425;51.616;6.680;2023-07-13T06:39:28;4.07;;;1.65;;
70067;SDS011;57425;51.616;6.680;2023-07-13T06:41:54;4.45;;;2.03;;
70067;SDS011;57425;51.616;6.680;2023-07-13T06:44:20;6.95;;;1.85;;
70067;SDS011;57425;51.616;6.680;2023-07-13T06:46:45;5.60;;;2.10;;
70067;SDS011;57425;51.616;6.680;2023-07-13T06:49:12;12.55;;;2.50;;
70067;SDS011;57425;51.616;6.680;2023-07-13T06:51:37;7.95;;;2.50;;
70067;SDS011;57425;51.616;6.680;2023-07-13T06:54:03;7.57;;;2.13;;
70067;SDS011;57425;51.616;6.680;2023-07-13T06:56:29;9.57;;;2.50;;
70067;SDS011;57425;51.616;6.680;2023-07-13T06:58:55;12.38;;;3.25;;
70067;SDS011;57425;51.616;6.680;2023-07-13T07:01:20;4.80;;;1.80;;
70067;SDS011;57425;51.616;6.680;2023-07-13T07:03:46;4.47;;;2.00;;
70067;SDS011;57425;51.616;6.680;2023-07-13T07:06:20;11.60;;;1.95;;
70067;SDS011;57425;51.616;6.680;2023-07-13T07:08:49;11.00;;;3.17;;
70067;SDS011;57425;51.616;6.680;2023-07-13T07:11:20;10.80;;;2.47;;
70067;SDS011;57425;51.616;6.680;2023-07-13T07:13:50;9.68;;;2.33;;
70067;SDS011;57425;51.616;6.680;2023-07-13T07:16:17;5.38;;;1.90;;
70067;SDS011;57425;51.616;6.680;2023-07-13T07:18:43;8.50;;;2.20;;
70067;SDS011;57425;51.616;6.680;2023-07-13T07:21:09;6.28;;;2.38;;
70067;SDS011;57425;51.616;6.680;2023-07-13T07:23:35;5.65;;;1.80;;
70067;SDS011;57425;51.616;6.680;2023-07-13T07:26:01;3.97;;;1.80;;
70067;SDS011;57425;51.616;6.680;2023-07-13T07:28:28;8.70;;;2.10;;
70067;SDS011;57425;51.616;6.680;2023-07-13T07:30:55;3.63;;;1.92;;
70067;SDS011;57425;51.616;6.680;2023-07-13T07:33:22;11.15;;;2.03;;
70067;SDS011;57425;51.616;6.680;2023-07-13T07:35:48;5.18;;;1.67;;
70067;SDS011;57425;51.616;6.680;2023-07-13T07:38:14;5.40;;;1.52;;
70067;SDS011;57425;51.616;6.680;2023-07-13T07:40:40;6.93;;;1.80;;
70067;SDS011;57425;51.616;6.680;2023-07-13T07:43:07;11.60;;;1.77;;
70067;SDS011;57425;51.616;6.680;2023-07-13T07:45:33;4.40;;;1.20;;
70067;SDS011;57425;51.616;6.680;2023-07-13T07:47:59;4.85;;;1.95;;
70067;SDS011;57425;51.616;6.680;2023-07-13T07:50:28;6.95;;;1.88;;
70067;SDS011;57425;51.616;6.680;2023-07-13T07:52:53;4.65;;;1.85;;
70067;SDS011;57425;51.616;6.680;2023-07-13T07:55:21;9.48;;;1.73;;
70067;SDS011;57425;51.616;6.680;2023-07-13T07:57:47;13.77;;;1.75;;
70067;SDS011;57425;51.616;6.680;2023-07-13T08:00:13;3.95;;;1.63;;
70067;SDS011;57425;51.616;6.680;2023-07-13T08:02:40;4.22;;;1.60;;
70067;SDS011;57425;51.616;6.680;2023-07-13T08:05:06;12.35;;;2.15;;
70067;SDS011;57425;51.616;6.680;2023-07-13T08:07:33;5.95;;;1.63;;
70067;SDS011;57425;51.616;6.680;2023-07-13T08:09:59;3.15;;;1.45;;
70067;SDS011;57425;51.616;6.680;2023-07-13T08:12:25;7.60;;;1.40;;
70067;SDS011;57425;51.616;6.680;2023-07-13T08:14:51;5.60;;;1.83;;
70067;SDS011;57425;51.616;6.680;2023-07-13T08:17:22;6.65;;;1.98;;
70067;SDS011;57425;51.616;6.680;2023-07-13T08:19:49;4.85;;;1.65;;
70067;SDS011;57425;51.616;6.680;2023-07-13T08:22:15;4.85;;;1.35;;
70067;SDS011;57425;51.616;6.680;2023-07-13T08:24:41;5.03;;;1.73;;
70067;SDS011;57425;51.616;6.680;2023-07-13T08:27:10;5.80;;;1.65;;
70067;SDS011;57425;51.616;6.680;2023-07-13T08:29:36;4.15;;;1.02;;
70067;SDS011;57425;51.616;6.680;2023-07-13T08:32:04;4.05;;;1.80;;
70067;SDS011;57425;51.616;6.680;2023-07-13T08:34:34;5.82;;;1.13;;
70067;SDS011;57425;51.616;6.680;2023-07-13T08:37:00;7.35;;;1.40;;
70067;SDS011;57425;51.616;6.680;2023-07-13T08:39:26;10.07;;;1.63;;
70067;SDS011;57425;51.616;6.680;2023-07-13T08:41:54;3.90;;;1.02;;
70067;SDS011;57425;51.616;6.680;2023-07-13T08:44:27;5.90;;;1.55;;
70067;SDS011;57425;51.616;6.680;2023-07-13T08:47:05;6.43;;;1.67;;
70067;SDS011;57425;51.616;6.680;2023-07-13T08:49:34;3.58;;;1.60;;
70067;SDS011;57425;51.616;6.680;2023-07-13T08:52:01;6.45;;;2.05;;
70067;SDS011;57425;51.616;6.680;2023-07-13T08:54:36;7.32;;;2.05;;
70067;SDS011;57425;51.616;6.680;2023-07-13T08:57:14;9.68;;;1.85;;
70067;SDS011;57425;51.616;6.680;2023-07-13T08:59:44;5.75;;;1.48;;
70067;SDS011;57425;51.616;6.680;2023-07-13T09:15:27;15.95;;;1.75;;
70067;SDS011;57425;51.616;6.680;2023-07-13T09:17:55;6.65;;;1.92;;
70067;SDS011;57425;51.616;6.680;2023-07-13T09:20:34;6.82;;;1.40;;
70067;SDS011;57425;51.616;6.680;2023-07-13T09:23:04;2.17;;;1.38;;
70067;SDS011;57425;51.616;6.680;2023-07-13T09:25:33;5.72;;;2.03;;
70067;SDS011;57425;51.616;6.680;2023-07-13T09:28:14;5.63;;;1.67;;
70067;SDS011;57425;51.616;6.680;2023-07-13T09:30:55;12.43;;;1.27;;
70067;SDS011;57425;51.616;6.680;2023-07-13T09:33:28;6.43;;;1.30;;
70067;SDS011;57425;51.616;6.680;2023-07-13T09:35:56;3.33;;;1.63;;
70067;SDS011;57425;51.616;6.680;2023-07-13T09:38:25;2.63;;;1.50;;
70067;SDS011;57425;51.616;6.680;2023-07-13T09:46:31;4.30;;;1.48;;
70067;SDS011;57425;51.616;6.680;2023-07-13T09:48:57;8.90;;;1.50;;
70067;SDS011;57425;51.616;6.680;2023-07-13T09:51:22;9.75;;;2.08;;
70067;SDS011;57425;51.616;6.680;2023-07-13T09:53:48;5.63;;;2.28;;
70067;SDS011;57425;51.616;6.680;2023-07-13T09:56:21;7.38;;;1.67;;
70067;SDS011;57425;51.616;6.680;2023-07-13T09:58:49;6.43;;;1.92;;
70067;SDS011;57425;51.616;6.680;2023-07-13T10:01:15;3.13;;;1.50;;
70067;SDS011;57425;51.616;6.680;2023-07-13T10:03:55;2.05;;;1.50;;
70067;SDS011;57425;51.616;6.680;2023-07-13T10:06:21;10.25;;;1.50;;
70067;SDS011;57425;51.616;6.680;2023-07-13T10:08:47;6.65;;;1.60;;
70067;SDS011;57425;51.616;6.680;2023-07-13T10:11:23;5.82;;;1.42;;
70067;SDS011;57425;51.616;6.680;2023-07-13T10:13:59;4.63;;;1.55;;
70067;SDS011;57425;51.616;6.680;2023-07-13T10:16:32;7.35;;;2.72;;
70067;SDS011;57425;51.616;6.680;2023-07-13T10:18:59;2.83;;;1.35;;
70067;SDS011;57425;51.616;6.680;2023-07-13T10:21:38;4.40;;;1.90;;
70067;SDS011;57425;51.616;6.680;2023-07-13T10:24:19;6.45;;;1.40;;
70067;SDS011;57425;51.616;6.680;2023-07-13T10:27:35;4.35;;;1.63;;
70067;SDS011;57425;51.616;6.680;2023-07-13T10:29:48;6.93;;;1.70;;
70067;SDS011;57425;51.616;6.680;2023-07-13T10:32:20;4.75;;;1.75;;
70067;SDS011;57425;51.616;6.680;2023-07-13T10:34:49;6.05;;;1.52;;
70067;SDS011;57425;51.616;6.680;2023-07-13T10:37:27;2.58;;;1.20;;
70067;SDS011;57425;51.616;6.680;2023-07-13T10:39:56;5.78;;;1.77;;
70067;SDS011;57425;51.616;6.680;2023-07-13T10:42:29;9.00;;;1.73;;
70067;SDS011;57425;51.616;6.680;2023-07-13T10:44:59;3.42;;;1.08;;
70067;SDS011;57425;51.616;6.680;2023-07-13T10:47:25;3.92;;;1.30;;
70067;SDS011;57425;51.616;6.680;2023-07-13T10:49:54;3.28;;;1.10;;
70067;SDS011;57425;51.616;6.680;2023-07-13T10:55:41;6.75;;;1.50;;
70067;SDS011;57425;51.616;6.680;2023-07-13T10:58:18;2.45;;;1.08;;
70067;SDS011;57425;51.616;6.680;2023-07-13T11:01:29;8.57;;;1.15;;
70067;SDS011;57425;51.616;6.680;2023-07-13T11:03:38;11.95;;;1.35;;
70067;SDS011;57425;51.616;6.680;2023-07-13T11:09:19;3.90;;;1.55;;
70067;SDS011;57425;51.616;6.680;2023-07-13T11:15:26;4.97;;;1.45;;
70067;SDS011;57425;51.616;6.680;2023-07-13T11:17:54;6.78;;;1.30;;
70067;SDS011;57425;51.616;6.680;2023-07-13T11:20:33;5.65;;;1.13;;
70067;SDS011;57425;51.616;6.680;2023-07-13T11:25:56;2.63;;;1.23;;
70067;SDS011;57425;51.616;6.680;2023-07-13T11:28:23;2.88;;;1.15;;
70067;SDS011;57425;51.616;6.680;2023-07-13T11:33:27;2.78;;;0.90;;
70067;SDS011;57425;51.616;6.680;2023-07-13T11:36:03;3.55;;;1.48;;
70067;SDS011;57425;51.616;6.680;2023-07-13T11:38:57;3.17;;;1.10;;
70067;SDS011;57425;51.616;6.680;2023-07-13T11:41:43;3.53;;;1.17;;
70067;SDS011;57425;51.616;6.680;2023-07-13T11:44:15;2.00;;;0.80;;
70067;SDS011;57425;51.616;6.680;2023-07-13T11:46:53;2.13;;;0.80;;
70067;SDS011;57425;51.616;6.680;2023-07-13T11:49:21;3.88;;;1.10;;
70067;SDS011;57425;51.616;6.680;2023-07-13T11:51:48;3.63;;;1.00;;
70067;SDS011;57425;51.616;6.680;2023-07-13T11:56:57;3.88;;;1.42;;
70067;SDS011;57425;51.616;6.680;2023-07-13T11:59:31;2.08;;;0.88;;
70067;SDS011;57425;51.616;6.680;2023-07-13T12:01:58;2.45;;;0.90;;
70067;SDS011;57425;51.616;6.680;2023-07-13T12:04:25;9.07;;;1.80;;
70067;SDS011;57425;51.616;6.680;2023-07-13T12:07:07;4.13;;;1.33;;
70067;SDS011;57425;51.616;6.680;2023-07-13T12:09:40;3.38;;;1.10;;
70067;SDS011;57425;51.616;6.680;2023-07-13T12:12:17;3.40;;;0.90;;
70067;SDS011;57425;51.616;6.680;2023-07-13T12:14:45;1.95;;;0.90;;
70067;SDS011;57425;51.616;6.680;2023-07-13T12:17:21;1.77;;;1.10;;
70067;SDS011;57425;51.616;6.680;2023-07-13T12:19:49;8.52;;;1.17;;
70067;SDS011;57425;51.616;6.680;2023-07-13T12:22:18;4.60;;;0.70;;
70067;SDS011;57425;51.616;6.680;2023-07-13T12:24:45;3.33;;;0.90;;
70067;SDS011;57425;51.616;6.680;2023-07-13T12:27:25;2.00;;;0.88;;
70067;SDS011;57425;51.616;6.680;2023-07-13T12:29:56;3.58;;;1.08;;
70067;SDS011;57425;51.616;6.680;2023-07-13T12:32:24;3.37;;;1.00;;
70067;SDS011;57425;51.616;6.680;2023-07-13T12:34:55;6.45;;;1.35;;
70067;SDS011;57425;51.616;6.680;2023-07-13T12:37:22;3.28;;;1.23;;
70067;SDS011;57425;51.616;6.680;2023-07-13T12:39:49;4.00;;;1.20;;
70067;SDS011;57425;51.616;6.680;2023-07-13T12:44:58;9.10;;;2.45;;
70067;SDS011;57425;51.616;6.680;2023-07-13T12:47:26;5.53;;;1.85;;
70067;SDS011;57425;51.616;6.680;2023-07-13T12:49:54;2.85;;;1.27;;
70067;SDS011;57425;51.616;6.680;2023-07-13T12:52:33;3.85;;;1.60;;
70067;SDS011;57425;51.616;6.680;2023-07-13T12:55:07;2.03;;;1.20;;
70067;SDS011;57425;51.616;6.680;2023-07-13T12:57:48;4.40;;;1.75;;
70067;SDS011;57425;51.616;6.680;2023-07-13T13:00:21;2.78;;;1.40;;
70067;SDS011;57425;51.616;6.680;2023-07-13T13:02:48;4.95;;;2.00;;
70067;SDS011;57425;51.616;6.680;2023-07-13T13:05:15;3.50;;;1.85;;
70067;SDS011;57425;51.616;6.680;2023-07-13T13:07:41;4.13;;;1.60;;
70067;SDS011;57425;51.616;6.680;2023-07-13T13:10:13;4.82;;;1.67;;
70067;SDS011;57425;51.616;6.680;2023-07-13T13:12:39;2.83;;;1.60;;
70067;SDS011;57425;51.616;6.680;2023-07-13T13:15:08;3.65;;;1.60;;
70067;SDS011;57425;51.616;6.680;2023-07-13T13:17:34;3.42;;;1.70;;
70067;SDS011;57425;51.616;6.680;2023-07-13T13:20:00;3.28;;;1.60;;
70067;SDS011;57425;51.616;6.680;2023-07-13T13:22:26;1.65;;;1.55;;
70067;SDS011;57425;51.616;6.680;2023-07-13T13:24:52;3.58;;;1.60;;
70067;SDS011;57425;51.616;6.680;2023-07-13T13:27:18;2.22;;;1.73;;
70067;SDS011;57425;51.616;6.680;2023-07-13T13:29:45;5.30;;;1.60;;
70067;SDS011;57425;51.616;6.680;2023-07-13T13:32:13;5.18;;;1.67;;
70067;SDS011;57425;51.616;6.680;2023-07-13T13:34:40;2.67;;;1.77;;
70067;SDS011;57425;51.616;6.680;2023-07-13T13:37:11;5.45;;;1.50;;
70067;SDS011;57425;51.616;6.680;2023-07-13T13:39:46;2.83;;;1.88;;
70067;SDS011;57425;51.616;6.680;2023-07-13T13:42:12;5.13;;;2.03;;
70067;SDS011;57425;51.616;6.680;2023-07-13T13:44:38;3.35;;;1.85;;
70067;SDS011;57425;51.616;6.680;2023-07-13T13:47:07;4.45;;;1.50;;
70067;SDS011;57425;51.616;6.680;2023-07-13T13:49:58;3.42;;;1.98;;
70067;SDS011;57425;51.616;6.680;2023-07-13T13:52:26;2.50;;;1.60;;
70067;SDS011;57425;51.616;6.680;2023-07-13T13:54:52;2.45;;;1.80;;
70067;SDS011;57425;51.616;6.680;2023-07-13T13:57:21;3.00;;;2.30;;
70067;SDS011;57425;51.616;6.680;2023-07-13T13:59:49;3.20;;;1.55;;
70067;SDS011;57425;51.616;6.680;2023-07-13T14:02:25;6.97;;;2.22;;
70067;SDS011;57425;51.616;6.680;2023-07-13T14:04:54;4.97;;;2.45;;
70067;SDS011;57425;51.616;6.680;2023-07-13T14:07:25;4.45;;;2.53;;
70067;SDS011;57425;51.616;6.680;2023-07-13T14:09:54;4.07;;;1.40;;
70067;SDS011;57425;51.616;6.680;2023-07-13T14:12:22;3.20;;;1.23;;
70067;SDS011;57425;51.616;6.680;2023-07-13T14:14:49;3.67;;;1.65;;
70067;SDS011;57425;51.616;6.680;2023-07-13T14:17:21;1.90;;;1.33;;
70067;SDS011;57425;51.616;6.680;2023-07-13T14:19:50;3.30;;;1.50;;
70067;SDS011;57425;51.616;6.680;2023-07-13T14:22:19;7.50;;;1.40;;
70067;SDS011;57425;51.616;6.680;2023-07-13T14:24:45;1.63;;;1.00;;
70067;SDS011;57425;51.616;6.680;2023-07-13T14:27:11;2.63;;;1.30;;
70067;SDS011;57425;51.616;6.680;2023-07-13T14:29:37;3.05;;;1.30;;
70067;SDS011;57425;51.616;6.680;2023-07-13T14:32:03;3.05;;;1.85;;
70067;SDS011;57425;51.616;6.680;2023-07-13T14:34:32;1.95;;;1.05;;
70067;SDS011;57425;51.616;6.680;2023-07-13T14:36:59;1.35;;;1.25;;
70067;SDS011;57425;51.616;6.680;2023-07-13T14:39:24;2.90;;;1.60;;
70067;SDS011;57425;51.616;6.680;2023-07-13T14:41:51;2.15;;;1.30;;
70067;SDS011;57425;51.616;6.680;2023-07-13T14:44:23;2.72;;;1.52;;
70067;SDS011;57425;51.616;6.680;2023-07-13T14:46:50;4.80;;;1.73;;
70067;SDS011;57425;51.616;6.680;2023-07-13T14:49:34;5.60;;;1.23;;
70067;SDS011;57425;51.616;6.680;2023-07-13T14:52:25;2.72;;;1.63;;
70067;SDS011;57425;51.616;6.680;2023-07-13T14:54:50;2.55;;;1.23;;
70067;SDS011;57425;51.616;6.680;2023-07-13T14:57:17;3.38;;;1.80;;
70067;SDS011;57425;51.616;6.680;2023-07-13T14:59:44;6.10;;;1.60;;
70067;SDS011;57425;51.616;6.680;2023-07-13T15:02:17;4.55;;;1.60;;
70067;SDS011;57425;51.616;6.680;2023-07-13T15:04:50;5.78;;;1.70;;
70067;SDS011;57425;51.616;6.680;2023-07-13T15:07:16;2.88;;;1.40;;
70067;SDS011;57425;51.616;6.680;2023-07-13T15:09:44;3.95;;;1.73;;
70067;SDS011;57425;51.616;6.680;2023-07-13T15:12:09;5.32;;;1.75;;
70067;SDS011;57425;51.616;6.680;2023-07-13T15:14:35;1.80;;;1.40;;
70067;SDS011;57425;51.616;6.680;2023-07-13T15:17:01;7.57;;;1.98;;
70067;SDS011;57425;51.616;6.680;2023-07-13T15:19:27;2.80;;;1.70;;
70067;SDS011;57425;51.616;6.680;2023-07-13T15:21:54;2.95;;;1.70;;
70067;SDS011;57425;51.616;6.680;2023-07-13T15:24:22;5.07;;;1.65;;
70067;SDS011;57425;51.616;6.680;2023-07-13T15:26:48;2.58;;;1.67;;
70067;SDS011;57425;51.616;6.680;2023-07-13T15:29:14;2.90;;;1.90;;
70067;SDS011;57425;51.616;6.680;2023-07-13T15:31:40;3.40;;;1.70;;
70067;SDS011;57425;51.616;6.680;2023-07-13T15:34:12;4.80;;;1.95;;
70067;SDS011;57425;51.616;6.680;2023-07-13T15:36:39;6.15;;;2.00;;